Time;durP1;ratioP1;P1;durP2;ratioP2;P2;SDS_P1;SDS_P2;PMS_P1;PMS_P2;Temp;Humidity;BMP_temperature;BMP_pressure;BME280_temperature;BME280_humidity;BME280_pressure;Samples;Min_cycle;Max_cycle;Signal;HPM_P1;HPM_P2
2023/11/18 00:00:55;;;;;;;;;;;;;;;3.18;84.57;101713.52;106598;1256;70482;-87
2023/11/18 00:03:42;;;;;;;;;;;;;;;3.21;84.38;101710.22;106579;1256;60316;-80
2023/11/18 00:06:08;;;;;;;;;;;;;;;3.24;84.34;101714.99;106603;1256;60565;-80
2023/11/18 00:08:35;;;;;;;;;;;;;;;3.29;84.29;101711.16;106383;1257;124747;-80
2023/11/18 00:11:02;;;;;;;;;;;;;;;3.29;83.96;101713.77;106680;1256;66030;-80
2023/11/18 00:13:29;;;;;;;;;;;;;;;3.35;84.30;101718.96;106322;1262;124923;-80
2023/11/18 00:15:57;;;;;;;;;;;;;;;3.40;84.31;101720.56;106461;1256;60489;-80
2023/11/18 00:18:24;;;;;;;;;;;;;;;3.44;84.23;101723.27;106416;1256;60335;-80
2023/11/18 00:20:51;;;;;;;;;;;;;;;3.42;83.90;101722.28;106354;1256;124288;-80
2023/11/18 00:23:18;;;;;;;;;;;;;;;3.42;83.78;101724.05;106470;1260;65143;-77
2023/11/18 00:25:45;;;;;;;;;;;;;;;3.47;83.74;101726.60;106330;1256;124351;-79
2023/11/18 00:28:11;;;;;;;;;;;;;;;3.51;83.79;101731.58;106495;1257;60585;-79
2023/11/18 00:30:38;;;;;;;;;;;;;;;3.55;83.65;101734.28;106416;1260;60326;-80
2023/11/18 00:33:04;;;;;;;;;;;;;;;3.55;83.38;101741.88;106473;1260;124114;-79
2023/11/18 00:35:33;;;;;;;;;;;;;;;3.54;83.46;101742.40;106625;1256;65989;-85
2023/11/18 00:38:00;;;;;;;;;;;;;;;3.53;83.30;101746.64;106406;1257;124888;-86
2023/11/18 00:40:29;;;;;;;;;;;;;;;3.48;83.06;101749.77;106675;1259;60354;-86
2023/11/18 00:42:56;;;;;;;;;;;;;;;3.46;83.21;101751.38;106630;1256;60567;-87
2023/11/18 00:45:23;;;;;;;;;;;;;;;3.41;83.10;101757.09;106692;1256;123800;-87
2023/11/18 00:47:49;;;;;;;;;;;;;;;3.37;83.03;101757.17;106565;1256;66043;-87
2023/11/18 00:50:17;;;;;;;;;;;;;;;3.36;83.13;101758.24;106564;1256;124168;-86
2023/11/18 00:52:44;;;;;;;;;;;;;;;3.36;83.01;101767.30;106664;1257;60467;-86
2023/11/18 00:55:10;;;;;;;;;;;;;;;3.35;83.18;101773.30;106795;1260;60426;-86
2023/11/18 00:57:40;;;;;;;;;;;;;;;3.33;83.10;101774.59;106635;1256;123848;-86
2023/11/18 01:00:07;;;;;;;;;;;;;;;3.30;82.99;101775.04;106737;1259;66645;-87
2023/11/18 01:02:34;;;;;;;;;;;;;;;3.28;83.10;101775.11;106556;1256;123348;-87
2023/11/18 01:05:01;;;;;;;;;;;;;;;3.29;83.12;101775.35;106594;1256;59125;-87
2023/11/18 01:07:27;;;;;;;;;;;;;;;3.30;83.23;101774.50;106576;1256;124123;-88
2023/11/18 01:09:54;;;;;;;;;;;;;;;3.32;83.24;101779.00;106567;1256;71937;-85
2023/11/18 01:12:20;;;;;;;;;;;;;;;3.32;83.23;101781.93;106540;1259;66278;-86
2023/11/18 01:14:47;;;;;;;;;;;;;;;3.29;83.25;101781.92;106520;1256;122723;-88
2023/11/18 01:17:13;;;;;;;;;;;;;;;3.27;83.19;101784.08;106608;1260;60620;-85
2023/11/18 01:19:40;;;;;;;;;;;;;;;3.27;83.27;101783.69;106551;1260;124746;-86
2023/11/18 01:22:06;;;;;;;;;;;;;;;3.28;83.25;101785.17;106666;1259;74007;-85
2023/11/18 01:24:33;;;;;;;;;;;;;;;3.29;83.24;101788.34;106583;1258;64691;-86
2023/11/18 01:27:00;;;;;;;;;;;;;;;3.28;83.28;101788.80;106623;1259;124700;-86
2023/11/18 01:29:26;;;;;;;;;;;;;;;3.27;83.20;101794.27;106595;1256;58562;-79
2023/11/18 01:31:55;;;;;;;;;;;;;;;3.27;83.14;101795.47;106502;1256;124742;-85
2023/11/18 01:34:21;;;;;;;;;;;;;;;3.29;83.24;101793.36;106697;1256;72572;-86
2023/11/18 01:36:52;;;;;;;;;;;;;;;3.31;83.23;101789.71;106450;1261;64229;-86
2023/11/18 01:39:19;;;;;;;;;;;;;;;3.33;83.11;101788.77;106541;1259;124360;-87
2023/11/18 01:41:46;;;;;;;;;;;;;;;3.32;83.14;101792.90;106585;1256;59218;-78
2023/11/18 01:44:15;;;;;;;;;;;;;;;3.28;82.87;101795.58;106512;1260;124876;-86
2023/11/18 01:46:45;;;;;;;;;;;;;;;3.26;82.97;101799.94;106642;1256;72972;-78
2023/11/18 01:49:13;;;;;;;;;;;;;;;3.27;83.06;101801.71;106559;1262;65108;-78
2023/11/18 01:51:41;;;;;;;;;;;;;;;3.29;83.20;101803.78;106400;1256;124395;-78
2023/11/18 01:54:07;;;;;;;;;;;;;;;3.30;82.88;101806.84;106549;1258;60430;-78
2023/11/18 01:56:34;;;;;;;;;;;;;;;3.30;83.00;101810.67;106465;1256;124076;-78
2023/11/18 01:59:03;;;;;;;;;;;;;;;3.27;82.73;101810.59;106587;1256;73962;-79
2023/11/18 02:01:30;;;;;;;;;;;;;;;3.24;82.67;101812.29;106441;1256;124514;-79
2023/11/18 02:03:57;;;;;;;;;;;;;;;3.23;82.54;101819.54;106479;1257;70885;-79
2023/11/18 02:06:23;;;;;;;;;;;;;;;3.22;82.43;101823.20;106662;1257;60380;-86
2023/11/18 02:08:50;;;;;;;;;;;;;;;3.17;82.33;101824.61;106774;1256;123247;-78
2023/11/18 02:11:17;;;;;;;;;;;;;;;3.15;82.35;101818.05;106607;1256;72669;-77
2023/11/18 02:13:44;;;;;;;;;;;;;;;3.17;82.48;101823.52;106616;1257;124874;-86
2023/11/18 02:16:11;;;;;;;;;;;;;;;3.16;82.31;101822.62;106443;1256;72745;-78
2023/11/18 02:18:39;;;;;;;;;;;;;;;3.14;82.36;101829.80;105979;1258;60587;-78
2023/11/18 02:21:08;;;;;;;;;;;;;;;3.09;82.19;101829.27;106414;1257;124526;-84
2023/11/18 02:23:34;;;;;;;;;;;;;;;3.06;82.20;101829.19;106739;1259;73851;-77
2023/11/18 02:26:01;;;;;;;;;;;;;;;3.05;82.29;101825.77;105895;1260;124501;-84
2023/11/18 02:28:27;;;;;;;;;;;;;;;3.01;82.06;101826.23;105891;1256;71457;-85
2023/11/18 02:30:55;;;;;;;;;;;;;;;2.99;82.19;101828.67;106054;1260;60469;-84
2023/11/18 02:33:29;;;;;;;;;;;;;;;2.93;82.01;101828.80;105834;1257;123515;-84
2023/11/18 02:36:22;;;;;;;;;;;;;;;2.89;82.26;101822.77;105949;1256;73300;-79
2023/11/18 02:38:50;;;;;;;;;;;;;;;2.91;82.28;101820.50;106059;1262;124077;-78
2023/11/18 02:41:18;;;;;;;;;;;;;;;2.93;82.40;101818.20;106130;1262;73705;-85
2023/11/18 02:43:45;;;;;;;;;;;;;;;2.93;82.52;101819.95;106241;1263;124124;-79
2023/11/18 02:46:12;;;;;;;;;;;;;;;2.94;82.57;101818.96;106213;1263;60591;-78
2023/11/18 02:48:39;;;;;;;;;;;;;;;2.94;82.47;101816.70;106262;1262;73904;-85
2023/11/18 02:51:07;;;;;;;;;;;;;;;2.93;82.47;101817.13;106085;1262;123529;-78
2023/11/18 02:53:34;;;;;;;;;;;;;;;2.90;82.37;101821.43;106325;1261;72669;-86
2023/11/18 02:56:04;;;;;;;;;;;;;;;2.88;82.42;101827.56;106254;1262;124566;-86
2023/11/18 02:58:31;;;;;;;;;;;;;;;2.89;82.45;101836.30;106230;1262;60532;-86
2023/11/18 03:00:59;;;;;;;;;;;;;;;2.90;82.53;101838.41;106318;1260;74000;-86
2023/11/18 03:03:28;;;;;;;;;;;;;;;2.91;82.61;101839.41;106272;1261;125292;-78
2023/11/18 03:05:55;;;;;;;;;;;;;;;2.93;82.67;101839.35;106193;1262;73350;-86
2023/11/18 03:08:21;;;;;;;;;;;;;;;2.93;82.56;101840.60;106138;1262;124226;-85
2023/11/18 03:10:52;;;;;;;;;;;;;;;2.96;82.66;101847.02;105899;1261;60454;-85
2023/11/18 03:13:18;;;;;;;;;;;;;;;2.97;82.47;101847.45;105760;1264;125297;-87
2023/11/18 03:15:48;;;;;;;;;;;;;;;2.97;82.37;101843.29;106900;1256;65336;-85
2023/11/18 03:18:15;;;;;;;;;;;;;;;2.99;82.49;101848.28;106646;1260;71455;-86
2023/11/18 03:20:42;;;;;;;;;;;;;;;3.03;82.63;101843.38;106469;1256;124221;-85
2023/11/18 03:23:09;;;;;;;;;;;;;;;3.06;82.49;101845.68;106577;1256;60433;-85
2023/11/18 03:25:35;;;;;;;;;;;;;;;3.09;82.46;101849.39;106494;1256;124894;-86
2023/11/18 03:28:02;;;;;;;;;;;;;;;3.13;82.37;101848.23;106666;1256;65048;-86
2023/11/18 03:30:29;;;;;;;;;;;;;;;3.13;82.32;101852.21;106552;1260;72716;-78
2023/11/18 03:32:55;;;;;;;;;;;;;;;3.14;82.29;101850.39;106603;1260;124589;-87
2023/11/18 03:35:23;;;;;;;;;;;;;;;3.17;82.33;101852.83;106595;1256;60453;-87
2023/11/18 03:37:51;;;;;;;;;;;;;;;3.16;82.22;101857.85;106509;1257;124492;-87
2023/11/18 03:40:18;;;;;;;;;;;;;;;3.18;82.08;101863.84;106613;1256;66471;-85
2023/11/18 03:42:48;;;;;;;;;;;;;;;3.19;82.10;101869.13;106622;1256;72700;-79
2023/11/18 03:45:15;;;;;;;;;;;;;;;3.21;82.08;101869.64;106329;1256;124923;-78
2023/11/18 03:47:42;;;;;;;;;;;;;;;3.22;82.03;101868.70;106580;1260;60655;-78
2023/11/18 03:50:08;;;;;;;;;;;;;;;3.22;82.04;101863.67;106469;1256;124800;-79
2023/11/18 03:52:36;;;;;;;;;;;;;;;3.23;82.19;101864.27;106560;1258;66528;-78
2023/11/18 03:55:03;;;;;;;;;;;;;;;3.24;82.19;101864.33;106578;1256;71319;-79
2023/11/18 03:57:29;;;;;;;;;;;;;;;3.26;82.23;101866.69;106294;1256;124775;-78
2023/11/18 03:59:56;;;;;;;;;;;;;;;3.26;82.27;101870.02;106652;1256;59112;-84
2023/11/18 04:02:22;;;;;;;;;;;;;;;3.26;82.25;101874.86;106393;1256;124065;-82
2023/11/18 04:04:49;;;;;;;;;;;;;;;3.28;82.50;101877.06;106616;1256;66303;-79
2023/11/18 04:07:16;;;;;;;;;;;;;;;3.29;82.34;101876.14;106564;1256;124255;-81
2023/11/18 04:09:43;;;;;;;;;;;;;;;3.30;82.40;101878.98;106616;1256;59202;-86
2023/11/18 04:12:10;;;;;;;;;;;;;;;3.31;82.36;101885.98;106507;1256;60473;-80
2023/11/18 04:14:37;;;;;;;;;;;;;;;3.30;82.37;101889.42;106436;1256;124787;-79
2023/11/18 04:17:04;;;;;;;;;;;;;;;3.33;82.52;101894.24;106475;1256;64941;-86
2023/11/18 04:19:31;;;;;;;;;;;;;;;3.31;82.15;101898.15;106372;1256;125458;-79
2023/11/18 04:21:57;;;;;;;;;;;;;;;3.29;82.13;101901.82;106559;1257;60547;-79
2023/11/18 04:24:24;;;;;;;;;;;;;;;3.30;82.08;101906.55;106604;1257;60547;-79
2023/11/18 04:26:50;;;;;;;;;;;;;;;3.31;82.11;101908.17;106517;1257;123444;-80
2023/11/18 04:29:18;;;;;;;;;;;;;;;3.29;82.06;101909.07;106353;1256;64132;-79
2023/11/18 04:31:45;;;;;;;;;;;;;;;3.26;81.98;101909.55;106506;1257;124283;-81
2023/11/18 04:34:11;;;;;;;;;;;;;;;3.27;82.12;101906.66;106578;1256;60489;-80
2023/11/18 04:36:40;;;;;;;;;;;;;;;3.26;82.25;101904.73;106506;1260;60407;-80
2023/11/18 04:39:07;;;;;;;;;;;;;;;3.27;82.43;101912.55;106579;1255;123400;-79
2023/11/18 04:41:33;;;;;;;;;;;;;;;3.27;82.38;101914.99;106618;1261;66091;-80
2023/11/18 04:44:00;;;;;;;;;;;;;;;3.23;82.26;101924.03;106407;1256;124115;-85
2023/11/18 04:46:27;;;;;;;;;;;;;;;3.19;82.24;101930.54;106552;1257;60660;-85
2023/11/18 04:48:54;;;;;;;;;;;;;;;3.18;82.23;101930.84;106563;1256;60316;-84
2023/11/18 04:51:22;;;;;;;;;;;;;;;3.17;82.34;101934.04;106532;1260;123903;-84
2023/11/18 04:53:48;;;;;;;;;;;;;;;3.15;82.30;101935.25;106653;1256;65095;-80
2023/11/18 04:56:18;;;;;;;;;;;;;;;3.12;82.44;101937.87;106415;1256;124024;-78
2023/11/18 04:58:46;;;;;;;;;;;;;;;3.09;82.41;101934.88;106596;1261;60480;-79
2023/11/18 05:01:14;;;;;;;;;;;;;;;3.06;82.45;101935.13;106581;1256;60378;-78
2023/11/18 05:03:40;;;;;;;;;;;;;;;3.04;82.41;101924.57;106324;1260;123879;-79
2023/11/18 05:06:08;;;;;;;;;;;;;;;3.01;82.37;101921.95;106736;1261;65103;-86
2023/11/18 05:08:36;;;;;;;;;;;;;;;2.99;82.54;101925.61;106510;1257;123458;-87
2023/11/18 05:11:04;;;;;;;;;;;;;;;2.96;82.50;101931.30;106527;1260;60374;-78
2023/11/18 05:13:32;;;;;;;;;;;;;;;2.93;82.45;101940.25;106562;1256;124049;-78
2023/11/18 05:15:59;;;;;;;;;;;;;;;2.90;82.53;101939.69;106500;1259;72949;-79
2023/11/18 05:18:29;;;;;;;;;;;;;;;2.88;82.52;101942.61;106603;1260;65271;-78
2023/11/18 05:20:57;;;;;;;;;;;;;;;2.84;82.40;101948.73;106446;1257;124900;-78
2023/11/18 05:23:24;;;;;;;;;;;;;;;2.78;82.38;101950.17;106523;1260;60396;-86
2023/11/18 05:25:50;;;;;;;;;;;;;;;2.74;82.40;101955.48;106574;1257;124693;-86
2023/11/18 05:28:19;;;;;;;;;;;;;;;2.73;82.51;101957.64;106772;1256;73881;-86
2023/11/18 05:30:46;;;;;;;;;;;;;;;2.76;82.58;101964.45;106553;1259;66255;-78
2023/11/18 05:33:17;;;;;;;;;;;;;;;2.79;82.79;101967.48;106546;1258;124803;-85
2023/11/18 05:35:50;;;;;;;;;;;;;;;2.83;82.98;101957.20;106850;1259;60556;-86
2023/11/18 05:38:18;;;;;;;;;;;;;;;2.85;82.74;101941.93;106590;1259;124331;-87
2023/11/18 05:40:59;;;;;;;;;;;;;;;2.84;82.84;101938.73;106655;1256;74125;-87
2023/11/18 05:43:29;;;;;;;;;;;;;;;2.84;82.93;101947.41;106633;1256;124393;-86
2023/11/18 05:46:14;;;;;;;;;;;;;;;2.83;82.98;101963.10;106746;1259;71029;-86
2023/11/18 05:48:44;;;;;;;;;;;;;;;2.86;83.10;101970.98;106719;1258;60461;-87
2023/11/18 05:51:11;;;;;;;;;;;;;;;2.90;83.18;101970.23;106420;1256;124208;-79
2023/11/18 05:53:41;;;;;;;;;;;;;;;2.93;83.19;101965.92;106680;1262;73128;-79
2023/11/18 05:56:08;;;;;;;;;;;;;;;2.97;83.21;101964.77;106530;1256;124093;-77
2023/11/18 05:58:35;;;;;;;;;;;;;;;2.98;83.18;101960.03;106441;1256;72473;-76
2023/11/18 06:01:02;;;;;;;;;;;;;;;2.99;83.07;101960.41;106295;1259;60540;-82
2023/11/18 06:03:28;;;;;;;;;;;;;;;2.98;83.17;101966.31;105921;1258;124247;-85
2023/11/18 06:05:56;;;;;;;;;;;;;;;2.99;83.13;101973.42;105979;1262;74332;-86
2023/11/18 06:08:22;;;;;;;;;;;;;;;2.96;83.02;101975.15;106469;1256;124667;-87
2023/11/18 06:10:51;;;;;;;;;;;;;;;2.94;82.98;101973.73;106381;1256;71474;-79
2023/11/18 06:13:18;;;;;;;;;;;;;;;2.92;82.89;101971.73;106757;1256;124892;-78
2023/11/18 06:15:44;;;;;;;;;;;;;;;2.95;83.02;101975.04;106820;1255;60563;-85
2023/11/18 06:18:11;;;;;;;;;;;;;;;2.97;82.93;101978.84;106633;1260;73696;-85
2023/11/18 06:20:38;;;;;;;;;;;;;;;2.99;82.87;101982.49;106544;1256;124602;-86
2023/11/18 06:23:04;;;;;;;;;;;;;;;2.97;82.77;101984.45;106789;1256;72783;-85
2023/11/18 06:25:31;;;;;;;;;;;;;;;2.96;82.75;101985.92;106736;1262;125108;-86
2023/11/18 06:27:58;;;;;;;;;;;;;;;2.96;82.81;101985.02;106798;1261;60464;-85
2023/11/18 06:30:26;;;;;;;;;;;;;;;2.96;82.89;101985.55;106707;1260;74456;-86
2023/11/18 06:32:52;;;;;;;;;;;;;;;3.00;83.01;101984.84;106631;1260;124039;-86
2023/11/18 06:35:21;;;;;;;;;;;;;;;3.06;82.90;101987.20;106874;1262;71384;-85
2023/11/18 06:37:48;;;;;;;;;;;;;;;3.10;83.00;101988.15;106842;1259;124793;-85
2023/11/18 06:40:18;;;;;;;;;;;;;;;3.11;82.84;101995.00;106576;1258;60595;-87
2023/11/18 06:42:47;;;;;;;;;;;;;;;3.15;83.03;102000.80;106510;1256;72208;-79
2023/11/18 06:45:14;;;;;;;;;;;;;;;3.18;83.00;101998.97;106300;1256;124194;-78
2023/11/18 06:47:45;;;;;;;;;;;;;;;3.19;82.83;102000.77;106404;1261;71426;-78
2023/11/18 06:50:14;;;;;;;;;;;;;;;3.23;82.98;102007.67;106406;1262;124079;-77
2023/11/18 06:52:44;;;;;;;;;;;;;;;3.27;82.98;102008.55;106111;1256;60537;-81
2023/11/18 06:55:13;;;;;;;;;;;;;;;3.29;82.78;102007.61;106703;1256;73887;-79
2023/11/18 06:57:41;;;;;;;;;;;;;;;3.32;82.70;102009.38;107871;1260;124439;-79
2023/11/18 07:00:08;;;;;;;;;;;;;;;3.33;82.49;102010.66;106599;1256;72706;-78
2023/11/18 07:02:35;;;;;;;;;;;;;;;3.33;82.54;102015.20;106469;1256;124443;-78
2023/11/18 07:05:02;;;;;;;;;;;;;;;3.37;82.62;102016.53;106693;1256;60507;-78
2023/11/18 07:07:29;;;;;;;;;;;;;;;3.44;82.62;102017.20;106395;1256;124184;-79
2023/11/18 07:09:55;;;;;;;;;;;;;;;3.48;82.74;102022.96;106632;1260;66245;-87
2023/11/18 07:12:22;;;;;;;;;;;;;;;3.50;82.84;102022.03;106784;1257;72129;-87
2023/11/18 07:14:48;;;;;;;;;;;;;;;3.53;82.91;102029.89;106624;1256;123509;-86
2023/11/18 07:17:15;;;;;;;;;;;;;;;3.54;82.87;102028.70;106705;1256;60565;-87
2023/11/18 07:19:44;;;;;;;;;;;;;;;3.54;83.01;102036.38;106804;1260;123631;-86
2023/11/18 07:22:10;;;;;;;;;;;;;;;3.55;82.99;102034.87;106736;1257;65022;-87
2023/11/18 07:24:37;;;;;;;;;;;;;;;3.55;83.02;102034.02;106645;1256;71911;-86
2023/11/18 07:27:05;;;;;;;;;;;;;;;3.57;82.99;102033.65;106535;1256;123865;-86
2023/11/18 07:29:32;;;;;;;;;;;;;;;3.59;83.10;102031.33;106718;1257;60703;-86
2023/11/18 07:32:01;;;;;;;;;;;;;;;3.61;83.13;102032.55;106575;1256;123648;-84
2023/11/18 07:34:28;;;;;;;;;;;;;;;3.64;83.14;102024.30;106760;1257;66660;-84
2023/11/18 07:36:55;;;;;;;;;;;;;;;3.70;83.20;102020.20;106586;1256;73787;-85
2023/11/18 07:39:24;;;;;;;;;;;;;;;3.75;83.21;102028.18;106507;1258;124415;-85
2023/11/18 07:41:51;;;;;;;;;;;;;;;3.78;83.12;102035.39;106661;1256;59245;-85
2023/11/18 07:44:18;;;;;;;;;;;;;;;3.83;83.20;102035.84;106587;1257;123477;-85
2023/11/18 07:46:45;;;;;;;;;;;;;;;3.85;83.13;102040.73;106702;1260;66325;-84
2023/11/18 07:49:11;;;;;;;;;;;;;;;3.87;82.93;102046.21;106647;1256;72754;-77
2023/11/18 07:51:40;;;;;;;;;;;;;;;3.85;82.77;102043.83;106343;1256;124523;-78
2023/11/18 07:54:06;;;;;;;;;;;;;;;3.80;82.53;102044.37;106516;1260;60425;-77
2023/11/18 07:56:34;;;;;;;;;;;;;;;3.78;82.44;102044.86;106354;1262;124248;-81
2023/11/18 07:59:01;;;;;;;;;;;;;;;3.75;82.33;102047.29;106391;1262;64581;-79
2023/11/18 08:01:28;;;;;;;;;;;;;;;3.75;82.36;102045.37;106478;1259;124649;-79
2023/11/18 08:03:54;;;;;;;;;;;;;;;3.76;82.39;102044.73;106546;1258;60440;-84
2023/11/18 08:06:21;;;;;;;;;;;;;;;3.80;82.52;102048.16;106571;1256;58820;-85
2023/11/18 08:08:48;;;;;;;;;;;;;;;3.84;82.50;102046.59;106448;1256;127039;-85
2023/11/18 08:11:14;;;;;;;;;;;;;;;3.89;82.36;102049.33;106561;1268;66285;-85
2023/11/18 08:13:41;;;;;;;;;;;;;;;3.95;82.55;102054.26;106423;1257;124394;-86
2023/11/18 08:16:08;;;;;;;;;;;;;;;3.98;82.39;102056.26;106522;1262;60572;-85
2023/11/18 08:18:35;;;;;;;;;;;;;;;3.98;82.17;102061.06;106750;1257;60485;-86
2023/11/18 08:21:02;;;;;;;;;;;;;;;3.95;82.03;102063.15;106319;1256;124817;-79
2023/11/18 08:23:31;;;;;;;;;;;;;;;3.99;82.17;102062.19;106632;1257;65945;-79
2023/11/18 08:25:58;;;;;;;;;;;;;;;4.05;82.26;102065.44;107140;1258;124305;-85
2023/11/18 08:28:25;;;;;;;;;;;;;;;4.11;82.14;102062.71;106548;1258;59165;-85
2023/11/18 08:30:52;;;;;;;;;;;;;;;4.18;82.17;102064.29;106720;1260;60399;-85
2023/11/18 08:33:19;;;;;;;;;;;;;;;4.24;82.10;102068.36;106613;1255;124085;-85
2023/11/18 08:35:46;;;;;;;;;;;;;;;4.30;82.12;102071.59;106617;1259;66274;-79
2023/11/18 08:38:12;;;;;;;;;;;;;;;4.37;81.96;102064.41;106494;1259;125281;-79
2023/11/18 08:40:40;;;;;;;;;;;;;;;4.45;81.99;102060.30;106779;1257;58616;-79
2023/11/18 08:43:07;;;;;;;;;;;;;;;4.55;81.92;102061.48;106604;1262;60404;-85
2023/11/18 08:45:34;;;;;;;;;;;;;;;4.62;81.75;102060.65;106561;1257;124157;-85
2023/11/18 08:48:01;;;;;;;;;;;;;;;4.67;81.68;102063.39;106705;1257;64817;-85
2023/11/18 08:50:28;;;;;;;;;;;;;;;4.74;81.69;102065.61;106584;1257;125418;-85
2023/11/18 08:52:58;;;;;;;;;;;;;;;4.78;81.61;102067.95;106619;1259;60517;-85
2023/11/18 08:55:38;;;;;;;;;;;;;;;4.83;81.57;102072.16;106440;1260;125010;-85
2023/11/18 09:01:13;;;;;;;;;;;;;;;5.00;81.52;102076.95;106473;1267;66290;-86
2023/11/18 09:03:48;;;;;;;;;;;;;;;5.04;81.44;102079.52;106388;1264;125523;-79
2023/11/18 09:06:17;;;;;;;;;;;;;;;5.09;81.31;102087.67;106062;1267;59467;-80
2023/11/18 09:08:45;;;;;;;;;;;;;;;5.10;81.33;102088.60;105959;1268;123842;-78
2023/11/18 09:11:16;;;;;;;;;;;;;;;5.11;81.06;102091.80;106171;1264;73886;-79
2023/11/18 09:13:44;;;;;;;;;;;;;;;5.15;81.20;102097.67;106133;1263;124008;-89
2023/11/18 09:16:11;;;;;;;;;;;;;;;5.16;81.05;102102.12;106194;1267;72774;-90
2023/11/18 09:18:43;;;;;;;;;;;;;;;5.15;80.79;102102.35;106407;1263;60629;-88
2023/11/18 09:21:32;;;;;;;;;;;;;;;5.13;80.78;102099.60;105858;1268;772494;-88
2023/11/18 09:24:04;;;;;;;;;;;;;;;5.10;80.68;102099.25;106320;1262;75688;-94
2023/11/18 09:26:31;;;;;;;;;;;;;;;5.02;80.59;102099.42;106297;1262;123394;-85
2023/11/18 09:28:58;;;;;;;;;;;;;;;4.97;80.63;102098.16;106099;1268;71373;-85
2023/11/18 09:31:47;;;;;;;;;;;;;;;4.97;80.81;102100.94;105882;1264;124048;-93
2023/11/18 09:34:16;;;;;;;;;;;;;;;4.95;80.79;102107.77;106384;1267;60372;-87
2023/11/18 09:36:48;;;;;;;;;;;;;;;4.93;80.76;102112.13;106679;1259;72881;-93
2023/11/18 09:39:28;;;;;;;;;;;;;;;4.91;80.72;102116.67;106761;1255;124876;-80
2023/11/18 09:41:56;;;;;;;;;;;;;;;4.86;80.63;102120.20;106794;1260;71721;-83
2023/11/18 09:44:25;;;;;;;;;;;;;;;4.83;80.68;102123.66;106404;1262;124683;-76
2023/11/18 09:46:57;;;;;;;;;;;;;;;4.81;80.48;102122.79;107465;1257;60459;-77
2023/11/18 09:49:33;;;;;;;;;;;;;;;4.77;80.46;102129.12;106398;1258;124067;-78
2023/11/18 09:52:00;;;;;;;;;;;;;;;4.78;80.67;102125.72;106548;1258;66233;-79
2023/11/18 09:54:29;;;;;;;;;;;;;;;4.80;80.58;102127.76;106497;1258;72431;-79
2023/11/18 09:57:12;;;;;;;;;;;;;;;4.80;80.59;102123.44;106500;1257;123853;-80
2023/11/18 09:59:53;;;;;;;;;;;;;;;4.81;80.53;102125.08;106658;1262;60587;-80
2023/11/18 10:02:21;;;;;;;;;;;;;;;4.82;80.63;102127.59;106470;1261;124290;-88
2023/11/18 10:04:49;;;;;;;;;;;;;;;4.83;80.63;102126.63;106690;1261;64722;-80
2023/11/18 10:07:17;;;;;;;;;;;;;;;4.84;80.50;102119.38;106547;1260;124299;-81
2023/11/18 10:09:47;;;;;;;;;;;;;;;4.85;80.54;102117.86;107435;1256;58702;-87
2023/11/18 10:12:16;;;;;;;;;;;;;;;4.88;80.42;102119.46;106582;1258;60387;-87
2023/11/18 10:14:46;;;;;;;;;;;;;;;4.89;80.25;102124.55;106628;1262;124522;-85
2023/11/18 10:17:14;;;;;;;;;;;;;;;4.93;80.44;102122.58;106566;1262;65882;-89
2023/11/18 10:19:51;;;;;;;;;;;;;;;4.98;80.49;102123.09;106598;1261;124413;-88
2023/11/18 10:22:22;;;;;;;;;;;;;;;5.02;80.35;102123.06;106736;1259;61645;-88
2023/11/18 10:24:49;;;;;;;;;;;;;;;5.06;80.29;102123.30;106676;1257;60454;-86
2023/11/18 10:27:16;;;;;;;;;;;;;;;5.10;80.27;102132.09;106613;1261;124699;-87
2023/11/18 10:29:42;;;;;;;;;;;;;;;5.12;80.16;102136.58;106710;1255;66325;-89
2023/11/18 10:32:15;;;;;;;;;;;;;;;5.17;79.91;102144.09;106591;1260;124676;-88
2023/11/18 10:34:42;;;;;;;;;;;;;;;5.21;79.63;102148.16;106521;1258;60364;-86
2023/11/18 10:37:10;;;;;;;;;;;;;;;5.23;79.24;102144.18;106485;1260;60430;-79
2023/11/18 10:39:37;;;;;;;;;;;;;;;5.24;78.88;102143.73;106515;1262;124721;-79
2023/11/18 10:42:05;;;;;;;;;;;;;;;5.25;78.30;102142.96;106593;1261;66067;-81
2023/11/18 10:44:31;;;;;;;;;;;;;;;5.30;77.85;102145.98;106381;1261;124657;-80
2023/11/18 10:46:58;;;;;;;;;;;;;;;5.32;77.93;102147.91;106304;1260;60500;-78
2023/11/18 10:49:28;;;;;;;;;;;;;;;5.37;77.81;102147.70;106520;1260;124635;-81
2023/11/18 10:51:56;;;;;;;;;;;;;;;5.42;77.61;102149.27;106457;1257;73688;-85
2023/11/18 10:54:26;;;;;;;;;;;;;;;5.48;77.49;102145.48;106360;1260;65958;-81
2023/11/18 10:56:56;;;;;;;;;;;;;;;5.51;77.35;102143.08;106638;1257;124127;-81
2023/11/18 10:59:23;;;;;;;;;;;;;;;5.52;77.32;102142.98;106704;1261;60378;-80
2023/11/18 11:01:50;;;;;;;;;;;;;;;5.51;77.39;102143.77;106594;1264;124860;-80
2023/11/18 11:04:17;;;;;;;;;;;;;;;5.47;76.99;102145.44;106606;1258;73834;-80
2023/11/18 11:06:51;;;;;;;;;;;;;;;5.42;76.93;102149.10;106650;1260;65233;-80
2023/11/18 11:09:27;;;;;;;;;;;;;;;5.39;76.91;102149.98;106819;1263;123886;-79
2023/11/18 11:11:54;;;;;;;;;;;;;;;5.37;76.82;102149.80;106803;1257;60731;-86
2023/11/18 11:14:21;;;;;;;;;;;;;;;5.34;76.83;102148.54;106758;1257;123386;-86
2023/11/18 11:16:51;;;;;;;;;;;;;;;5.31;76.74;102146.79;106724;1258;73960;-88
2023/11/18 11:19:22;;;;;;;;;;;;;;;5.29;76.73;102147.00;106736;1256;123662;-85
2023/11/18 11:21:53;;;;;;;;;;;;;;;5.29;76.81;102153.98;107012;1257;71424;-87
2023/11/18 11:24:33;;;;;;;;;;;;;;;5.26;76.82;102159.00;106901;1257;60556;-85
2023/11/18 11:27:17;;;;;;;;;;;;;;;5.21;76.76;102165.09;106808;1256;123605;-79
2023/11/18 11:29:52;;;;;;;;;;;;;;;5.21;76.63;102166.79;106768;1257;72392;-87
2023/11/18 11:32:24;;;;;;;;;;;;;;;5.20;76.62;102167.44;106572;1262;123457;-86
2023/11/18 11:34:51;;;;;;;;;;;;;;;5.18;76.17;102165.02;106557;1256;72485;-86
2023/11/18 11:37:18;;;;;;;;;;;;;;;5.18;76.15;102163.12;106644;1257;124373;-86
2023/11/18 11:39:47;;;;;;;;;;;;;;;5.20;76.07;102163.82;106626;1258;61160;-87
2023/11/18 11:42:17;;;;;;;;;;;;;;;5.22;76.05;102164.95;106519;1258;73615;-87
2023/11/18 11:44:44;;;;;;;;;;;;;;;5.25;75.90;102167.06;106378;1259;124798;-87
2023/11/18 11:47:15;;;;;;;;;;;;;;;5.28;75.85;102167.46;106508;1258;72653;-80
2023/11/18 11:49:45;;;;;;;;;;;;;;;5.29;75.68;102168.55;106444;1257;124745;-81
2023/11/18 11:52:27;;;;;;;;;;;;;;;5.29;75.63;102170.81;106749;1259;60475;-80
2023/11/18 11:55:04;;;;;;;;;;;;;;;5.23;75.50;102178.95;106508;1260;72618;-79
2023/11/18 11:57:35;;;;;;;;;;;;;;;5.20;75.55;102185.17;106548;1257;124271;-79
2023/11/18 12:00:14;;;;;;;;;;;;;;;5.20;75.54;102181.41;106796;1260;71121;-80
2023/11/18 12:02:54;;;;;;;;;;;;;;;5.17;75.21;102181.35;106698;1257;124290;-80
2023/11/18 12:05:25;;;;;;;;;;;;;;;5.11;75.13;102176.90;106567;1260;60395;-80
2023/11/18 12:07:55;;;;;;;;;;;;;;;5.09;75.07;102175.00;106806;1263;124374;-80
2023/11/18 12:10:40;;;;;;;;;;;;;;;5.09;75.37;102171.52;106492;1257;66361;-81
2023/11/18 12:13:09;;;;;;;;;;;;;;;5.07;75.37;102165.50;106466;1261;71225;-81
2023/11/18 12:15:54;;;;;;;;;;;;;;;5.02;75.45;102168.95;106946;1257;123869;-80
2023/11/18 12:18:21;;;;;;;;;;;;;;;4.96;75.63;102167.33;106621;1259;60384;-81
2023/11/18 12:20:53;;;;;;;;;;;;;;;4.94;75.82;102172.26;106538;1260;123562;-80
2023/11/18 12:23:23;;;;;;;;;;;;;;;4.93;75.95;102175.14;106629;1260;66100;-80
2023/11/18 12:25:54;;;;;;;;;;;;;;;4.93;76.15;102175.79;106606;1256;123901;-80
2023/11/18 12:28:27;;;;;;;;;;;;;;;4.93;76.31;102176.14;106619;1257;59606;-81
2023/11/18 12:30:57;;;;;;;;;;;;;;;4.94;76.56;102184.44;106648;1257;58717;-80
2023/11/18 12:33:26;;;;;;;;;;;;;;;4.95;76.57;102185.34;106468;1257;124314;-80
2023/11/18 12:36:01;;;;;;;;;;;;;;;4.93;76.64;102179.99;106608;1260;68177;-80
2023/11/18 12:38:34;;;;;;;;;;;;;;;4.92;76.63;102180.58;106483;1258;123688;-80
2023/11/18 12:41:04;;;;;;;;;;;;;;;4.91;76.69;102173.20;106454;1261;60487;-81
2023/11/18 12:43:40;;;;;;;;;;;;;;;4.90;76.79;102174.36;106472;1257;123912;-85